Terminal Aerodrome Forecast
Issued by NWS Sterling, VA

Current Version | Previous Version | Graphics & Text | Print | Product List | Glossary On
Versions: 1 2 3 4 5 6 7 8 9 10 11 12 13 14 15 16 17 18 19 20 21 22 23 24 25 26
000
FTUS41 KLWX 261500 AAD
TAFIAD
TAF AMD
KIAD 261539Z 2616/2718 02009KT 1/4SM +SN OVC008
     FM261700 02012KT 1SM -SN OVC008
     FM262000 33012G20KT 2SM -RASN OVC008
     FM262200 31008KT P6SM SCT008 BKN035
     FM270400 30004KT P6SM BKN045
     FM270700 00000KT P6SM OVC045=

USA.gov is the U.S. government's official web portal to all federal, state and local government web resources and services.